createdAt,value
2019-02-23T00:00:34.596Z,8.10
2019-02-23T00:01:34.582Z,8.10
2019-02-23T00:02:34.570Z,8.06
2019-02-23T00:03:34.554Z,8.09
2019-02-23T00:04:34.549Z,8.14
2019-02-23T00:05:34.529Z,8.06
2019-02-23T00:06:34.513Z,8.04
2019-02-23T00:07:34.503Z,8.10
2019-02-23T00:08:34.487Z,8.00
2019-02-23T00:09:34.471Z,8.09
2019-02-23T00:10:34.459Z,8.10
2019-02-23T00:11:34.445Z,7.96
2019-02-23T00:12:34.433Z,8.04
2019-02-23T00:13:34.422Z,8.09
2019-02-23T00:14:34.404Z,8.00
2019-02-23T00:15:34.392Z,7.95
2019-02-23T00:16:34.379Z,7.95
2019-02-23T00:17:34.364Z,7.96
2019-02-23T00:18:34.350Z,7.92
2019-02-23T00:19:34.336Z,7.89
2019-02-23T00:20:34.322Z,8.00
2019-02-23T00:21:34.310Z,7.95
2019-02-23T00:22:34.295Z,7.92
2019-02-23T00:23:34.282Z,7.96
2019-02-23T00:24:34.268Z,7.95
2019-02-23T00:25:34.255Z,7.89
2019-02-23T00:26:34.243Z,7.94
2019-02-23T00:27:34.229Z,7.91
2019-02-23T00:28:34.216Z,7.85
2019-02-23T00:29:34.200Z,7.88
2019-02-23T00:30:34.187Z,7.74
2019-02-23T00:31:34.169Z,7.81
2019-02-23T00:32:34.163Z,7.82
2019-02-23T00:33:34.142Z,7.76
2019-02-23T00:34:34.129Z,7.77
2019-02-23T00:35:34.115Z,7.76
2019-02-23T00:36:34.104Z,7.79
2019-02-23T00:37:34.088Z,7.76
2019-02-23T00:38:34.074Z,7.74
2019-02-23T00:39:34.062Z,7.73
2019-02-23T00:40:34.046Z,7.71
2019-02-23T00:41:34.031Z,7.71
2019-02-23T00:42:34.018Z,7.71
2019-02-23T00:43:34.007Z,7.69
2019-02-23T00:44:33.989Z,7.62
2019-02-23T00:45:33.974Z,7.69
2019-02-23T00:46:33.965Z,7.62
2019-02-23T00:47:33.948Z,7.67
2019-02-23T00:48:33.936Z,7.67
2019-02-23T00:49:36.521Z,7.63
2019-02-23T00:50:33.906Z,7.62
2019-02-23T00:51:33.893Z,7.67
2019-02-23T00:52:33.877Z,7.55
2019-02-23T00:53:33.862Z,7.55
2019-02-23T00:54:33.851Z,7.57
2019-02-23T00:55:33.838Z,7.57
2019-02-23T00:56:33.820Z,7.62
2019-02-23T00:57:33.810Z,7.60
2019-02-23T00:58:33.792Z,7.58
2019-02-23T00:59:33.779Z,7.57
2019-02-23T01:00:33.764Z,7.54
2019-02-23T01:01:33.751Z,7.57
2019-02-23T01:02:33.739Z,7.52
2019-02-23T01:03:33.722Z,7.42
2019-02-23T01:04:33.709Z,7.51
2019-02-23T01:05:33.694Z,7.54
2019-02-23T01:06:33.683Z,7.55
2019-02-23T01:07:33.667Z,7.57
2019-02-23T01:08:33.653Z,7.47
2019-02-23T01:09:33.638Z,7.54
2019-02-23T01:10:33.623Z,7.52
2019-02-23T01:11:33.611Z,7.51
2019-02-23T01:12:33.597Z,7.54
2019-02-23T01:13:33.580Z,7.52
2019-02-23T01:14:33.568Z,7.50
2019-02-23T01:15:33.554Z,7.47
2019-02-23T01:16:33.538Z,7.44
2019-02-23T01:17:33.524Z,7.48
2019-02-23T01:18:33.511Z,7.39
2019-02-23T01:19:33.495Z,7.50
2019-02-23T01:20:33.483Z,7.36
2019-02-23T01:21:33.467Z,7.45
2019-02-23T01:22:33.454Z,7.41
2019-02-23T01:23:33.439Z,7.50
2019-02-23T01:24:33.425Z,7.34
2019-02-23T01:25:33.421Z,7.39
2019-02-23T01:26:33.412Z,7.39
2019-02-23T01:27:33.382Z,7.36
2019-02-23T01:28:33.371Z,7.32
2019-02-23T01:29:33.355Z,7.45
2019-02-23T01:30:33.340Z,7.42
2019-02-23T01:31:33.327Z,7.29
2019-02-23T01:32:33.313Z,7.39
2019-02-23T01:33:33.296Z,7.44
2019-02-23T01:34:33.284Z,7.37
2019-02-23T01:35:33.272Z,7.37
2019-02-23T01:36:33.254Z,7.34
2019-02-23T01:37:33.241Z,7.32
2019-02-23T01:38:33.225Z,7.32
2019-02-23T01:39:33.211Z,7.34
2019-02-23T01:40:33.199Z,7.34
2019-02-23T01:41:33.182Z,7.36
2019-02-23T01:42:33.169Z,7.41
2019-02-23T01:43:33.153Z,7.36
2019-02-23T01:44:33.139Z,7.29
2019-02-23T01:45:42.098Z,7.24
2019-02-23T01:46:33.111Z,7.23
2019-02-23T01:47:33.099Z,7.27
2019-02-23T01:48:33.082Z,7.24
2019-02-23T01:49:33.067Z,7.26
2019-02-23T01:50:33.054Z,7.23
2019-02-23T01:51:33.040Z,7.16
2019-02-23T01:52:33.025Z,7.23
2019-02-23T01:53:33.009Z,7.19
2019-02-23T01:54:32.995Z,7.16
2019-02-23T01:55:32.980Z,7.24
2019-02-23T01:56:32.967Z,7.19
2019-02-23T01:57:32.951Z,7.15
2019-02-23T01:58:32.944Z,7.19
2019-02-23T01:59:32.925Z,7.15
2019-02-23T02:00:32.910Z,7.24
2019-02-23T02:01:32.897Z,7.21
2019-02-23T02:02:32.882Z,7.15
2019-02-23T02:03:32.875Z,7.11
2019-02-23T02:04:32.855Z,7.23
2019-02-23T02:05:32.839Z,7.23
2019-02-23T02:06:33.620Z,7.15
2019-02-23T02:07:32.810Z,7.19
2019-02-23T02:08:32.802Z,7.18
2019-02-23T02:09:32.781Z,7.09
2019-02-23T02:10:32.769Z,7.12
2019-02-23T02:11:32.754Z,7.16
2019-02-23T02:12:32.738Z,7.15
2019-02-23T02:13:32.725Z,7.18
2019-02-23T02:14:32.709Z,7.14
2019-02-23T02:15:32.694Z,7.11
2019-02-23T02:16:32.683Z,7.15
2019-02-23T02:17:32.665Z,7.14
2019-02-23T02:18:32.658Z,7.05
2019-02-23T02:19:32.638Z,7.08
2019-02-23T02:20:32.627Z,7.12
2019-02-23T02:21:32.611Z,7.14
2019-02-23T02:22:32.593Z,7.12
2019-02-23T02:23:32.580Z,6.99
2019-02-23T02:24:32.568Z,7.08
2019-02-23T02:25:32.551Z,7.05
2019-02-23T02:26:32.541Z,7.01
2019-02-23T02:27:32.522Z,7.07
2019-02-23T02:28:32.511Z,6.94
2019-02-23T02:29:32.495Z,6.99
2019-02-23T02:30:32.481Z,6.94
2019-02-23T02:31:32.468Z,7.01
2019-02-23T02:32:32.453Z,6.91
2019-02-23T02:33:32.439Z,6.90
2019-02-23T02:34:32.423Z,6.96
2019-02-23T02:35:32.409Z,6.93
2019-02-23T02:36:32.396Z,6.94
2019-02-23T02:37:32.381Z,6.99
2019-02-23T02:38:32.366Z,6.81
2019-02-23T02:39:32.356Z,6.91
2019-02-23T02:40:32.344Z,6.89
2019-02-23T02:41:32.323Z,6.91
2019-02-23T02:42:32.311Z,6.91
2019-02-23T02:43:32.296Z,6.86
2019-02-23T02:44:32.281Z,6.93
2019-02-23T02:45:32.266Z,6.87
2019-02-23T02:46:32.253Z,6.89
2019-02-23T02:47:32.238Z,6.86
2019-02-23T02:48:32.226Z,6.93
2019-02-23T02:49:32.208Z,6.93
2019-02-23T02:50:32.196Z,6.90
2019-02-23T02:51:32.182Z,6.91
2019-02-23T02:52:32.173Z,6.91
2019-02-23T02:53:32.154Z,6.91
2019-02-23T02:54:32.140Z,6.86
2019-02-23T02:55:32.123Z,6.83
2019-02-23T02:56:32.114Z,6.90
2019-02-23T02:57:32.097Z,6.91
2019-02-23T02:58:32.083Z,6.87
2019-02-23T02:59:32.068Z,6.97
2019-02-23T03:00:32.052Z,6.93
2019-02-23T03:01:32.041Z,7.04
2019-02-23T03:02:32.024Z,6.91
2019-02-23T03:03:32.010Z,6.90
2019-02-23T03:04:31.995Z,6.94
2019-02-23T03:05:31.979Z,6.89
2019-02-23T03:06:31.964Z,6.89
2019-02-23T03:07:32.021Z,6.91
2019-02-23T03:08:31.937Z,6.90
2019-02-23T03:09:31.922Z,6.89
2019-02-23T03:10:31.911Z,6.94
2019-02-23T03:11:31.949Z,6.91
2019-02-23T03:12:31.879Z,6.89
2019-02-23T03:13:31.866Z,6.83
2019-02-23T03:14:31.849Z,6.81
2019-02-23T03:15:31.839Z,6.87
2019-02-23T03:16:31.821Z,6.76
2019-02-23T03:17:31.809Z,6.82
2019-02-23T03:18:31.792Z,6.79
2019-02-23T03:19:31.779Z,6.79
2019-02-23T03:20:36.752Z,6.87
2019-02-23T03:21:31.748Z,6.72
2019-02-23T03:22:31.735Z,6.73
2019-02-23T03:23:31.721Z,6.75
2019-02-23T03:24:31.707Z,6.71
2019-02-23T03:25:31.692Z,6.82
2019-02-23T03:26:31.677Z,6.71
2019-02-23T03:27:31.662Z,6.79
2019-02-23T03:28:31.649Z,6.75
2019-02-23T03:29:31.634Z,6.72
2019-02-23T03:30:31.618Z,6.76
2019-02-23T03:31:31.606Z,6.78
2019-02-23T03:32:31.643Z,6.69
2019-02-23T03:33:31.579Z,6.69
2019-02-23T03:34:31.561Z,6.75
2019-02-23T03:35:31.547Z,6.71
2019-02-23T03:36:31.530Z,6.69
2019-02-23T03:37:31.516Z,6.71
2019-02-23T03:38:31.508Z,6.69
2019-02-23T03:39:31.489Z,6.73
2019-02-23T03:40:31.474Z,6.71
2019-02-23T03:41:31.461Z,6.64
2019-02-23T03:42:31.446Z,6.69
2019-02-23T03:43:31.432Z,6.83
2019-02-23T03:44:31.415Z,6.73
2019-02-23T03:45:31.400Z,6.81
2019-02-23T03:46:31.387Z,6.87
2019-02-23T03:47:31.376Z,6.82
2019-02-23T03:48:31.362Z,6.90
2019-02-23T03:49:31.345Z,6.78
2019-02-23T03:50:31.329Z,6.76
2019-02-23T03:51:31.315Z,6.69
2019-02-23T03:52:31.302Z,6.68
2019-02-23T03:53:31.284Z,6.81
2019-02-23T03:54:31.270Z,6.82
2019-02-23T03:55:31.255Z,6.91
2019-02-23T03:56:31.243Z,6.93
2019-02-23T03:57:31.227Z,6.89
2019-02-23T03:58:31.219Z,6.94
2019-02-23T03:59:31.220Z,6.93
2019-02-23T04:00:31.186Z,6.83
2019-02-23T04:01:31.170Z,6.83
2019-02-23T04:02:31.155Z,6.79
2019-02-23T04:03:31.140Z,6.75
2019-02-23T04:04:31.126Z,6.75
2019-02-23T04:05:31.111Z,6.81
2019-02-23T04:06:31.098Z,6.87
2019-02-23T04:07:31.085Z,6.78
2019-02-23T04:08:31.067Z,6.81
2019-02-23T04:09:31.052Z,6.90
2019-02-23T04:10:31.044Z,6.91
2019-02-23T04:11:31.023Z,7.00
2019-02-23T04:12:31.009Z,6.96
2019-02-23T04:13:30.994Z,7.00
2019-02-23T04:14:30.980Z,7.01
2019-02-23T04:15:30.972Z,7.09
2019-02-23T04:16:30.952Z,7.07
2019-02-23T04:17:30.943Z,7.11
2019-02-23T04:18:30.923Z,7.01
2019-02-23T04:19:30.910Z,7.00
2019-02-23T04:20:30.910Z,7.01
2019-02-23T04:21:30.880Z,7.08
2019-02-23T04:22:30.864Z,7.15
2019-02-23T04:23:30.850Z,7.15
2019-02-23T04:24:30.839Z,7.08
2019-02-23T04:25:30.821Z,7.01
2019-02-23T04:26:30.806Z,7.00
2019-02-23T04:27:30.793Z,6.94
2019-02-23T04:28:30.780Z,7.08
2019-02-23T04:29:30.765Z,7.08
2019-02-23T04:30:30.750Z,7.01
2019-02-23T04:31:30.735Z,7.16
2019-02-23T04:32:30.723Z,7.15
2019-02-23T04:33:30.706Z,7.19
2019-02-23T04:34:30.693Z,7.11
2019-02-23T04:35:30.678Z,7.15
2019-02-23T04:36:30.664Z,7.04
2019-02-23T04:37:30.647Z,7.05
2019-02-23T04:38:30.652Z,7.14
2019-02-23T04:39:30.624Z,7.14
2019-02-23T04:40:30.621Z,7.19
2019-02-23T04:41:30.606Z,7.11
2019-02-23T04:42:30.587Z,7.12
2019-02-23T04:43:30.564Z,7.21
2019-02-23T04:44:30.548Z,7.15
2019-02-23T04:45:30.534Z,7.14
2019-02-23T04:46:30.525Z,6.99
2019-02-23T04:47:30.508Z,7.07
2019-02-23T04:48:30.493Z,7.07
2019-02-23T04:49:30.479Z,6.94
2019-02-23T04:50:30.464Z,6.97
2019-02-23T04:51:30.450Z,7.01
2019-02-23T04:52:30.434Z,7.05
2019-02-23T04:53:30.419Z,7.11
2019-02-23T04:54:30.407Z,7.04
2019-02-23T04:55:30.397Z,7.08
2019-02-23T04:56:30.375Z,7.01
2019-02-23T04:57:30.363Z,7.04
2019-02-23T04:58:30.348Z,6.97
2019-02-23T04:59:30.335Z,7.04
2019-02-23T05:00:30.320Z,6.96
2019-02-23T05:01:30.307Z,6.91
2019-02-23T05:02:30.292Z,6.96
2019-02-23T05:03:30.279Z,6.97
2019-02-23T05:04:30.261Z,7.08
2019-02-23T05:05:30.248Z,7.08
2019-02-23T05:06:30.236Z,7.00
2019-02-23T05:07:30.219Z,7.00
2019-02-23T05:08:30.205Z,6.99
2019-02-23T05:09:30.191Z,7.12
2019-02-23T05:10:30.178Z,7.18
2019-02-23T05:11:30.164Z,7.29
2019-02-23T05:12:30.149Z,7.26
2019-02-23T05:13:30.135Z,7.23
2019-02-23T05:14:30.121Z,7.36
2019-02-23T05:15:30.106Z,7.23
2019-02-23T05:16:30.093Z,7.21
2019-02-23T05:17:30.075Z,7.23
2019-02-23T05:18:30.064Z,7.19
2019-02-23T05:19:30.047Z,7.16
2019-02-23T05:20:30.035Z,7.14
2019-02-23T05:21:30.022Z,7.26
2019-02-23T05:22:30.007Z,7.23
2019-02-23T05:23:29.991Z,7.29
2019-02-23T05:24:29.980Z,7.24
2019-02-23T05:25:29.963Z,7.42
2019-02-23T05:26:29.947Z,7.23
2019-02-23T05:27:29.935Z,7.15
2019-02-23T05:28:29.921Z,7.01
2019-02-23T05:29:29.907Z,7.01
2019-02-23T05:30:29.891Z,7.14
2019-02-23T05:31:29.877Z,7.15
2019-02-23T05:32:29.864Z,7.09
2019-02-23T05:33:29.848Z,6.96
2019-02-23T05:34:29.837Z,6.94
2019-02-23T05:35:29.823Z,6.97
2019-02-23T05:36:29.806Z,6.87
2019-02-23T05:37:29.796Z,6.87
2019-02-23T05:38:29.777Z,6.90
2019-02-23T05:39:29.763Z,7.00
2019-02-23T05:40:29.750Z,7.01
2019-02-23T05:41:29.735Z,7.23
2019-02-23T05:42:29.720Z,7.12
2019-02-23T05:43:29.706Z,7.00
2019-02-23T05:44:29.692Z,7.00
2019-02-23T05:45:29.689Z,6.96
2019-02-23T05:46:29.666Z,6.90
2019-02-23T05:47:29.650Z,7.08
2019-02-23T05:48:29.638Z,7.00
2019-02-23T05:49:29.620Z,6.99
2019-02-23T05:50:29.607Z,6.96
2019-02-23T05:51:38.401Z,7.07
2019-02-23T05:52:29.582Z,6.86
2019-02-23T05:53:29.563Z,6.89
2019-02-23T05:54:29.549Z,6.87
2019-02-23T05:55:29.540Z,7.01
2019-02-23T05:56:29.522Z,7.00
2019-02-23T05:57:29.508Z,6.94
2019-02-23T05:58:29.493Z,7.12
2019-02-23T05:59:29.478Z,7.01
2019-02-23T06:00:29.463Z,7.01
2019-02-23T06:01:29.450Z,7.08
2019-02-23T06:02:29.436Z,7.01
2019-02-23T06:03:29.420Z,7.04
2019-02-23T06:04:29.413Z,7.09
2019-02-23T06:05:29.392Z,7.01
2019-02-23T06:06:29.380Z,7.01
2019-02-23T06:07:29.366Z,7.04
2019-02-23T06:08:29.350Z,6.94
2019-02-23T06:09:29.335Z,7.05
2019-02-23T06:10:29.321Z,6.99
2019-02-23T06:11:29.308Z,7.04
2019-02-23T06:12:29.295Z,7.05
2019-02-23T06:13:29.280Z,7.04
2019-02-23T06:14:29.267Z,6.97
2019-02-23T06:15:29.251Z,6.86
2019-02-23T06:16:29.242Z,6.78
2019-02-23T06:17:29.223Z,6.71
2019-02-23T06:18:29.208Z,6.72
2019-02-23T06:19:29.194Z,6.69
2019-02-23T06:20:29.179Z,6.75
2019-02-23T06:21:29.166Z,6.71
2019-02-23T06:22:29.152Z,6.71
2019-02-23T06:23:29.137Z,6.72
2019-02-23T06:24:29.125Z,6.73
2019-02-23T06:25:29.110Z,6.68
2019-02-23T06:26:29.094Z,6.64
2019-02-23T06:27:29.083Z,6.69
2019-02-23T06:28:29.068Z,6.65
2019-02-23T06:29:29.053Z,6.58
2019-02-23T06:30:29.046Z,6.57
2019-02-23T06:31:29.033Z,6.63
2019-02-23T06:32:29.008Z,6.61
2019-02-23T06:33:28.997Z,6.63
2019-02-23T06:34:28.986Z,6.53
2019-02-23T06:35:28.966Z,6.50
2019-02-23T06:36:28.953Z,6.55
2019-02-23T06:37:28.938Z,6.57
2019-02-23T06:38:28.925Z,6.55
2019-02-23T06:39:28.908Z,6.57
2019-02-23T06:40:28.894Z,6.57
2019-02-23T06:41:28.938Z,6.46
2019-02-23T06:42:28.864Z,6.46
2019-02-23T06:43:28.850Z,6.45
2019-02-23T06:44:28.837Z,6.45
2019-02-23T06:45:28.821Z,6.40
2019-02-23T06:46:28.807Z,6.40
2019-02-23T06:47:28.792Z,6.46
2019-02-23T06:48:28.780Z,6.43
2019-02-23T06:49:28.777Z,6.33
2019-02-23T06:50:28.753Z,6.39
2019-02-23T06:51:28.735Z,6.32
2019-02-23T06:52:28.721Z,6.32
2019-02-23T06:53:28.706Z,6.32
2019-02-23T06:54:28.691Z,6.35
2019-02-23T06:55:28.677Z,6.28
2019-02-23T06:56:28.663Z,6.25
2019-02-23T06:57:28.647Z,6.24
2019-02-23T06:58:28.633Z,6.27
2019-02-23T06:59:28.638Z,6.30
2019-02-23T07:00:28.603Z,6.21
2019-02-23T07:01:28.590Z,6.25
2019-02-23T07:02:28.573Z,6.25
2019-02-23T07:03:28.560Z,6.14
2019-02-23T07:04:28.546Z,6.24
2019-02-23T07:05:28.532Z,6.24
2019-02-23T07:06:28.521Z,6.21
2019-02-23T07:07:28.505Z,6.20
2019-02-23T07:08:28.491Z,6.16
2019-02-23T07:09:28.470Z,6.13
2019-02-23T07:10:28.456Z,5.98
2019-02-23T07:11:28.441Z,6.03
2019-02-23T07:12:28.427Z,6.03
2019-02-23T07:13:28.415Z,5.93
2019-02-23T07:14:28.397Z,5.88
2019-02-23T07:15:28.385Z,5.98
2019-02-23T07:16:28.369Z,5.96
2019-02-23T07:17:28.352Z,5.98
2019-02-23T07:18:28.338Z,6.02
2019-02-23T07:19:28.325Z,5.99
2019-02-23T07:20:28.309Z,5.88
2019-02-23T07:21:28.292Z,5.98
2019-02-23T07:22:28.279Z,5.93
2019-02-23T07:23:28.262Z,5.84
2019-02-23T07:24:28.246Z,5.84
2019-02-23T07:25:28.232Z,5.83
2019-02-23T07:26:28.215Z,5.80
2019-02-23T07:27:28.204Z,5.83
2019-02-23T07:28:28.187Z,5.83
2019-02-23T07:29:28.171Z,6.02
2019-02-23T07:30:28.159Z,5.85
2019-02-23T07:31:28.142Z,5.98
2019-02-23T07:32:28.127Z,5.81
2019-02-23T07:33:32.913Z,5.84
2019-02-23T07:34:28.097Z,5.85
2019-02-23T07:35:28.084Z,5.81
2019-02-23T07:36:28.073Z,5.84
2019-02-23T07:37:28.051Z,5.80
2019-02-23T07:38:28.037Z,5.78
2019-02-23T07:39:28.020Z,5.92
2019-02-23T07:40:28.006Z,5.87
2019-02-23T07:41:27.991Z,5.83
2019-02-23T07:42:27.976Z,5.75
2019-02-23T07:43:27.959Z,5.83
2019-02-23T07:44:27.947Z,5.83
2019-02-23T07:45:27.928Z,5.83
2019-02-23T07:46:27.916Z,5.78
2019-02-23T07:47:27.899Z,5.80
2019-02-23T07:48:27.884Z,5.78
2019-02-23T07:49:27.870Z,5.85
2019-02-23T07:50:27.854Z,5.93
2019-02-23T07:51:27.840Z,5.83
2019-02-23T07:52:27.824Z,5.80
2019-02-23T07:53:27.808Z,5.74
2019-02-23T07:54:27.793Z,5.78
2019-02-23T07:55:27.779Z,5.70
2019-02-23T07:56:27.762Z,5.75
2019-02-23T07:57:27.748Z,5.78
2019-02-23T07:58:27.733Z,5.78
2019-02-23T07:59:27.717Z,5.75
2019-02-23T08:00:27.703Z,5.67
2019-02-23T08:01:27.686Z,5.66
2019-02-23T08:02:27.672Z,5.60
2019-02-23T08:03:27.659Z,5.66
2019-02-23T08:04:27.643Z,5.73
2019-02-23T08:05:27.627Z,5.60
2019-02-23T08:06:27.611Z,5.69
2019-02-23T08:07:27.596Z,5.78
2019-02-23T08:08:27.581Z,5.67
2019-02-23T08:09:27.564Z,5.70
2019-02-23T08:10:27.614Z,5.70
2019-02-23T08:11:27.534Z,5.73
2019-02-23T08:12:27.520Z,5.69
2019-02-23T08:13:27.501Z,5.73
2019-02-23T08:14:27.488Z,5.74
2019-02-23T08:15:27.475Z,5.75
2019-02-23T08:16:27.457Z,5.66
2019-02-23T08:17:27.443Z,5.69
2019-02-23T08:18:27.428Z,5.74
2019-02-23T08:19:27.418Z,5.78
2019-02-23T08:20:27.397Z,5.69
2019-02-23T08:21:27.380Z,5.77
2019-02-23T08:22:37.106Z,5.87
2019-02-23T08:23:27.349Z,5.90
2019-02-23T08:24:27.335Z,5.85
2019-02-23T08:25:27.322Z,5.87
2019-02-23T08:26:27.303Z,5.88
2019-02-23T08:27:27.298Z,5.92
2019-02-23T08:28:27.274Z,5.83
2019-02-23T08:29:27.260Z,5.84
2019-02-23T08:30:27.243Z,5.74
2019-02-23T08:31:27.229Z,5.74
2019-02-23T08:32:27.217Z,5.83
2019-02-23T08:33:27.197Z,5.83
2019-02-23T08:34:27.181Z,5.85
2019-02-23T08:35:27.166Z,5.80
2019-02-23T08:36:27.151Z,5.85
2019-02-23T08:37:27.137Z,5.74
2019-02-23T08:38:27.120Z,5.83
2019-02-23T08:39:27.107Z,5.69
2019-02-23T08:40:27.092Z,5.85
2019-02-23T08:41:27.075Z,5.85
2019-02-23T08:42:27.059Z,5.75
2019-02-23T08:43:27.045Z,5.74
2019-02-23T08:44:27.032Z,5.88
2019-02-23T08:45:27.013Z,5.93
2019-02-23T08:46:26.999Z,5.84
2019-02-23T08:47:26.985Z,5.92
2019-02-23T08:48:26.970Z,5.98
2019-02-23T08:49:26.952Z,5.88
2019-02-23T08:50:26.948Z,5.98
2019-02-23T08:51:26.925Z,6.02
2019-02-23T08:52:26.908Z,6.05
2019-02-23T08:53:26.895Z,6.14
2019-02-23T08:54:26.877Z,6.08
2019-02-23T08:55:26.861Z,6.06
2019-02-23T08:56:26.848Z,6.21
2019-02-23T08:57:26.831Z,6.19
2019-02-23T08:58:26.817Z,6.21
2019-02-23T08:59:26.801Z,6.24
2019-02-23T09:00:26.798Z,6.27
2019-02-23T09:01:26.771Z,6.27
2019-02-23T09:02:26.756Z,6.32
2019-02-23T09:03:26.741Z,6.35
2019-02-23T09:04:26.731Z,6.25
2019-02-23T09:05:26.710Z,6.35
2019-02-23T09:06:26.696Z,6.35
2019-02-23T09:07:26.681Z,6.36
2019-02-23T09:08:26.667Z,6.51
2019-02-23T09:09:26.651Z,6.58
2019-02-23T09:10:26.641Z,6.61
2019-02-23T09:11:26.626Z,6.71
2019-02-23T09:12:26.609Z,6.72
2019-02-23T09:13:26.594Z,6.72
2019-02-23T09:14:26.578Z,6.64
2019-02-23T09:15:26.567Z,6.71
2019-02-23T09:16:26.550Z,6.72
2019-02-23T09:17:26.534Z,6.86
2019-02-23T09:18:26.520Z,6.82
2019-02-23T09:19:26.505Z,6.72
2019-02-23T09:20:29.521Z,6.78
2019-02-23T09:21:26.477Z,6.69
2019-02-23T09:22:26.462Z,6.79
2019-02-23T09:23:26.448Z,6.83
2019-02-23T09:24:26.434Z,6.72
2019-02-23T09:25:26.421Z,6.69
2019-02-23T09:26:26.404Z,6.82
2019-02-23T09:27:26.390Z,6.81
2019-02-23T09:28:26.376Z,6.72
2019-02-23T09:29:26.362Z,6.91
2019-02-23T09:30:26.347Z,6.96
2019-02-23T09:31:26.334Z,7.04
2019-02-23T09:32:26.320Z,7.00
2019-02-23T09:33:26.306Z,7.11
2019-02-23T09:34:26.297Z,7.15
2019-02-23T09:35:26.277Z,7.15
2019-02-23T09:36:26.266Z,7.21
2019-02-23T09:37:26.247Z,7.11
2019-02-23T09:38:26.236Z,7.12
2019-02-23T09:39:26.222Z,6.94
2019-02-23T09:40:26.207Z,6.82
2019-02-23T09:41:26.193Z,7.07
2019-02-23T09:42:26.177Z,7.05
2019-02-23T09:43:26.174Z,7.16
2019-02-23T09:44:26.149Z,7.19
2019-02-23T09:45:26.134Z,7.24
2019-02-23T09:46:26.120Z,7.29
2019-02-23T09:47:26.107Z,7.19
2019-02-23T09:48:26.094Z,7.26
2019-02-23T09:49:26.078Z,7.27
2019-02-23T09:50:26.063Z,7.29
2019-02-23T09:51:26.049Z,7.32
2019-02-23T09:52:26.039Z,7.29
2019-02-23T09:53:26.022Z,7.41
2019-02-23T09:54:26.006Z,7.34
2019-02-23T09:55:25.996Z,7.41
2019-02-23T09:56:25.983Z,7.42
2019-02-23T09:57:25.966Z,7.39
2019-02-23T09:58:25.955Z,7.37
2019-02-23T09:59:25.943Z,7.41
2019-02-23T10:00:25.931Z,7.47
2019-02-23T10:01:25.912Z,7.54
2019-02-23T10:02:25.896Z,7.44
2019-02-23T10:03:25.884Z,7.42
2019-02-23T10:04:25.876Z,7.42
2019-02-23T10:05:25.857Z,7.48
2019-02-23T10:06:25.843Z,7.41
2019-02-23T10:07:25.834Z,7.52
2019-02-23T10:08:25.816Z,7.63
2019-02-23T10:09:25.805Z,7.58
2019-02-23T10:10:25.785Z,7.70
2019-02-23T10:11:25.775Z,7.77
2019-02-23T10:12:25.762Z,7.95
2019-02-23T10:13:25.746Z,7.99
2019-02-23T10:14:25.732Z,7.94
2019-02-23T10:15:25.720Z,7.88
2019-02-23T10:16:25.707Z,7.94
2019-02-23T10:17:25.693Z,7.96
2019-02-23T10:18:25.682Z,7.91
2019-02-23T10:19:25.667Z,7.99
2019-02-23T10:20:25.653Z,8.17
2019-02-23T10:21:25.641Z,8.13
2019-02-23T10:22:25.626Z,7.95
2019-02-23T10:23:25.614Z,7.92
2019-02-23T10:24:25.617Z,8.10
2019-02-23T10:25:25.586Z,8.12
2019-02-23T10:26:25.574Z,8.09
2019-02-23T10:27:25.560Z,8.09
2019-02-23T10:28:25.545Z,8.13
2019-02-23T10:29:25.531Z,8.02
2019-02-23T10:30:25.520Z,8.12
2019-02-23T10:31:25.504Z,8.17
2019-02-23T10:32:25.492Z,8.29
2019-02-23T10:33:25.482Z,8.24
2019-02-23T10:34:25.465Z,8.28
2019-02-23T10:35:25.452Z,8.42
2019-02-23T10:36:25.439Z,8.46
2019-02-23T10:37:25.423Z,8.45
2019-02-23T10:38:25.412Z,8.54
2019-02-23T10:39:25.405Z,8.47
2019-02-23T10:40:25.392Z,8.43
2019-02-23T10:41:25.373Z,8.52
2019-02-23T10:42:25.359Z,8.50
2019-02-23T10:43:25.346Z,8.54
2019-02-23T10:44:25.332Z,8.57
2019-02-23T10:45:25.318Z,8.61
2019-02-23T10:46:25.307Z,8.64
2019-02-23T10:47:25.291Z,8.49
2019-02-23T10:48:25.280Z,8.57
2019-02-23T10:49:25.266Z,8.71
2019-02-23T10:50:25.251Z,8.71
2019-02-23T10:51:25.240Z,8.70
2019-02-23T10:52:25.227Z,8.73
2019-02-23T10:53:32.619Z,8.89
2019-02-23T10:54:25.202Z,8.83
2019-02-23T10:55:25.187Z,8.86
2019-02-23T10:56:25.177Z,8.82
2019-02-23T10:57:25.161Z,8.67
2019-02-23T10:58:25.149Z,8.91
2019-02-23T10:59:25.137Z,8.89
2019-02-23T11:00:25.125Z,8.89
2019-02-23T11:01:25.108Z,8.89
2019-02-23T11:02:25.097Z,8.80
2019-02-23T11:03:25.086Z,8.86
2019-02-23T11:04:25.072Z,8.89
2019-02-23T11:05:25.057Z,8.96
2019-02-23T11:06:25.043Z,8.94
2019-02-23T11:07:25.031Z,8.93
2019-02-23T11:08:25.020Z,9.00
2019-02-23T11:09:25.010Z,9.19
2019-02-23T11:10:24.997Z,9.22
2019-02-23T11:11:24.982Z,9.24
2019-02-23T11:12:24.968Z,9.19
2019-02-23T11:13:24.954Z,9.23
2019-02-23T11:14:24.941Z,9.30
2019-02-23T11:15:24.928Z,9.38
2019-02-23T11:16:24.916Z,9.42
2019-02-23T11:17:24.904Z,9.41
2019-02-23T11:18:24.892Z,9.42
2019-02-23T11:19:24.877Z,9.40
2019-02-23T11:20:24.864Z,9.27
2019-02-23T11:21:24.853Z,9.23
2019-02-23T11:22:24.839Z,9.20
2019-02-23T11:23:24.827Z,9.23
2019-02-23T11:24:24.818Z,9.30
2019-02-23T11:25:24.803Z,9.24
2019-02-23T11:26:24.794Z,9.30
2019-02-23T11:27:24.779Z,9.30
2019-02-23T11:28:24.770Z,9.30
2019-02-23T11:29:24.753Z,9.40
2019-02-23T11:30:24.740Z,9.49
2019-02-23T11:31:24.727Z,9.38
2019-02-23T11:32:24.713Z,9.40
2019-02-23T11:33:24.699Z,9.41
2019-02-23T11:34:24.687Z,9.37
2019-02-23T11:35:24.675Z,9.32
2019-02-23T11:36:24.662Z,9.31
2019-02-23T11:37:24.651Z,9.31
2019-02-23T11:38:24.637Z,9.26
2019-02-23T11:39:24.627Z,9.32
2019-02-23T11:40:24.613Z,9.35
2019-02-23T11:41:24.600Z,9.37
2019-02-23T11:42:24.587Z,9.30
2019-02-23T11:43:24.576Z,9.31
2019-02-23T11:44:24.563Z,9.26
2019-02-23T11:45:24.550Z,9.34
2019-02-23T11:46:24.537Z,9.42
2019-02-23T11:47:24.526Z,9.40
2019-02-23T11:48:24.515Z,9.40
2019-02-23T11:49:24.501Z,9.45
2019-02-23T11:50:24.490Z,9.52
2019-02-23T11:51:24.477Z,9.68
2019-02-23T11:52:24.464Z,9.62
2019-02-23T11:53:24.452Z,9.67
2019-02-23T11:54:24.438Z,9.59
2019-02-23T11:55:24.432Z,9.70
2019-02-23T11:56:24.414Z,9.62
2019-02-23T11:57:24.401Z,9.59
2019-02-23T11:58:24.389Z,9.83
2019-02-23T11:59:24.377Z,9.95
2019-02-23T12:00:24.367Z,9.95
2019-02-23T12:01:24.352Z,10.07
2019-02-23T12:02:24.342Z,10.04
2019-02-23T12:03:24.329Z,10.02
2019-02-23T12:04:24.317Z,9.96
2019-02-23T12:05:24.303Z,9.98
2019-02-23T12:06:24.291Z,9.95
2019-02-23T12:07:24.281Z,9.98
2019-02-23T12:08:24.269Z,10.01
2019-02-23T12:09:24.256Z,10.07
2019-02-23T12:10:24.243Z,10.06
2019-02-23T12:11:24.235Z,9.98
2019-02-23T12:12:24.221Z,9.95
2019-02-23T12:13:24.205Z,9.99
2019-02-23T12:14:25.940Z,10.10
2019-02-23T12:15:24.183Z,10.09
2019-02-23T12:16:24.171Z,10.17
2019-02-23T12:17:24.157Z,10.17
2019-02-23T12:18:24.147Z,10.24
2019-02-23T12:19:24.139Z,10.29
2019-02-23T12:20:24.121Z,10.29
2019-02-23T12:21:24.109Z,10.28
2019-02-23T12:22:24.098Z,10.26
2019-02-23T12:23:24.085Z,10.26
2019-02-23T12:24:24.075Z,10.16
2019-02-23T12:25:24.061Z,10.29
2019-02-23T12:26:24.051Z,10.25
2019-02-23T12:27:24.037Z,10.14
2019-02-23T12:28:24.025Z,10.29
2019-02-23T12:29:24.013Z,10.26
2019-02-23T12:30:24.001Z,10.24
2019-02-23T12:31:23.990Z,10.34
2019-02-23T12:32:23.979Z,10.32
2019-02-23T12:33:23.968Z,10.29
2019-02-23T12:34:23.956Z,10.39
2019-02-23T12:35:23.944Z,10.42
2019-02-23T12:36:23.932Z,10.44
2019-02-23T12:37:23.920Z,10.54
2019-02-23T12:38:23.907Z,10.58
2019-02-23T12:39:23.896Z,10.49
2019-02-23T12:40:23.888Z,10.44
2019-02-23T12:41:23.871Z,10.57
2019-02-23T12:42:23.859Z,10.51
2019-02-23T12:43:23.846Z,10.60
2019-02-23T12:44:23.835Z,10.70
2019-02-23T12:45:23.823Z,10.68
2019-02-23T12:46:23.811Z,10.63
2019-02-23T12:47:23.802Z,10.65
2019-02-23T12:48:23.789Z,10.73
2019-02-23T12:49:23.778Z,10.63
2019-02-23T12:50:23.765Z,10.81
2019-02-23T12:51:23.755Z,10.80
2019-02-23T12:52:23.743Z,10.81
2019-02-23T12:53:23.731Z,10.72
2019-02-23T12:54:23.718Z,10.69
2019-02-23T12:55:23.707Z,10.78
2019-02-23T12:56:23.694Z,10.80
2019-02-23T12:57:23.684Z,10.93
2019-02-23T12:58:23.680Z,10.99
2019-02-23T12:59:23.662Z,11.01
2019-02-23T13:00:23.648Z,11.01
2019-02-23T13:01:23.636Z,10.95
2019-02-23T13:02:23.626Z,10.95
2019-02-23T13:03:23.615Z,10.94
2019-02-23T13:04:23.604Z,10.81
2019-02-23T13:05:23.593Z,10.90
2019-02-23T13:06:23.580Z,11.02
2019-02-23T13:07:23.570Z,10.98
2019-02-23T13:08:23.558Z,11.02
2019-02-23T13:09:23.545Z,11.02
2019-02-23T13:10:23.534Z,11.06
2019-02-23T13:11:23.527Z,11.05
2019-02-23T13:12:23.516Z,11.08
2019-02-23T13:13:23.501Z,11.08
2019-02-23T13:14:23.493Z,11.11
2019-02-23T13:15:23.480Z,11.05
2019-02-23T13:16:23.468Z,11.13